Time;durP1;ratioP1;P1;durP2;ratioP2;P2;SDS_P1;SDS_P2;PMS_P1;PMS_P2;Temp;Humidity;BMP_temperature;BMP_pressure;BME280_temperature;BME280_humidity;BME280_pressure;Samples;Min_cycle;Max_cycle;Signal;HPM_P1;HPM_P2
2022/09/27 00:00:04;;;;;;;4.25;0.80;;;;;;;9.30;100.00;99407.22;1044586;28;20337;-78
2022/09/27 00:00:42;;;;;;;2.67;0.75;;;;;;;9.32;100.00;99413.13;1048049;28;20303;-78
2022/09/27 00:01:14;;;;;;;7.60;0.80;;;;;;;9.33;100.00;99417.38;1044108;28;20296;-78
2022/09/27 00:01:46;;;;;;;3.40;0.77;;;;;;;9.38;100.00;99414.78;1040740;28;20307;-78
2022/09/27 00:02:18;;;;;;;6.15;0.70;;;;;;;9.39;100.00;99413.75;1041337;28;20304;-78
2022/09/27 00:02:50;;;;;;;12.70;2.38;;;;;;;9.36;100.00;99416.88;1042235;28;20330;-78
2022/09/27 00:03:21;;;;;;;1.60;0.98;;;;;;;9.38;100.00;99422.75;1044451;28;20367;-78
2022/09/27 00:03:57;;;;;;;6.40;1.15;;;;;;;9.36;100.00;99424.88;1040997;28;20397;-78
2022/09/27 00:04:29;;;;;;;4.07;1.15;;;;;;;9.34;100.00;99416.34;1043956;28;20302;-78
2022/09/27 00:05:00;;;;;;;9.10;1.85;;;;;;;9.39;100.00;99421.72;1040956;28;21324;-78
2022/09/27 00:05:32;;;;;;;1.13;0.43;;;;;;;9.39;100.00;99421.72;1042381;28;20288;-78
2022/09/27 00:06:25;;;;;;;3.28;0.70;;;;;;;9.48;100.00;99420.25;1035913;28;20312;-78
2022/09/27 00:06:56;;;;;;;5.80;0.90;;;;;;;9.45;100.00;99426.06;1039183;28;20393;-78
2022/09/27 00:07:28;;;;;;;3.35;0.70;;;;;;;9.47;100.00;99423.16;1041830;28;20286;-78
2022/09/27 00:07:59;;;;;;;3.70;0.88;;;;;;;9.41;100.00;99419.63;1043351;28;20403;-78
2022/09/27 00:08:32;;;;;;;9.70;1.65;;;;;;;9.40;100.00;99423.31;1044255;28;20303;-78
2022/09/27 00:09:04;;;;;;;5.45;0.70;;;;;;;9.46;100.00;99421.53;1044743;28;20427;-78
2022/09/27 00:09:36;;;;;;;2.15;0.85;;;;;;;9.42;100.00;99418.56;1044054;28;20310;-78
2022/09/27 00:10:07;;;;;;;3.90;0.65;;;;;;;9.39;100.00;99421.72;1040100;28;20292;-78
2022/09/27 00:10:39;;;;;;;4.75;1.67;;;;;;;9.36;100.00;99422.19;1038563;28;20292;-78
2022/09/27 00:11:16;;;;;;;2.42;0.93;;;;;;;9.31;100.00;99424.75;1039971;28;20312;-78
2022/09/27 00:11:47;;;;;;;3.30;0.80;;;;;;;9.35;100.00;99425.91;1037252;28;20404;-78
2022/09/27 00:12:19;;;;;;;5.93;0.73;;;;;;;9.35;100.00;99428.56;1038831;28;20480;-78
2022/09/27 00:12:51;;;;;;;2.80;0.50;;;;;;;9.31;100.00;99424.75;1044324;28;20358;-78
2022/09/27 00:13:23;;;;;;;2.00;0.77;;;;;;;9.37;100.00;99429.13;1045222;28;20303;-78
2022/09/27 00:13:56;;;;;;;4.57;0.80;;;;;;;9.33;100.00;99420.03;1049295;28;20299;-78
2022/09/27 00:14:27;;;;;;;7.38;0.88;;;;;;;9.35;100.00;99425.91;1048594;28;20302;-78
2022/09/27 00:15:00;;;;;;;5.07;0.93;;;;;;;9.37;100.00;99425.66;1044213;28;20424;-78
2022/09/27 00:15:31;;;;;;;4.55;0.90;;;;;;;9.34;100.00;99426.97;1044139;28;20362;-78
2022/09/27 00:16:06;;;;;;;3.92;0.80;;;;;;;9.33;100.00;99420.03;1046836;28;20630;-78
2022/09/27 00:16:39;;;;;;;4.97;0.77;;;;;;;9.33;100.00;99422.69;1044388;28;20299;-79
2022/09/27 00:17:11;;;;;;;1.70;1.00;;;;;;;9.34;100.00;99428.81;1037234;28;20304;-78
2022/09/27 00:17:43;;;;;;;6.65;0.52;;;;;;;9.32;100.00;99426.41;1039852;28;20334;-78
2022/09/27 00:18:15;;;;;;;2.20;0.45;;;;;;;9.38;100.00;99424.63;1036620;28;20667;-78
2022/09/27 00:18:47;;;;;;;1.85;0.70;;;;;;;9.31;100.00;99424.75;1037431;28;20312;-79
2022/09/27 00:19:21;;;;;;;4.45;0.73;;;;;;;9.30;100.00;99428.47;1035787;28;20394;-78
2022/09/27 00:19:55;;;;;;;6.38;1.73;;;;;;;9.34;100.00;99421.66;1036265;28;20311;-79
2022/09/27 00:20:26;;;;;;;6.25;1.23;;;;;;;9.35;100.00;99425.09;1037348;28;20363;-79
2022/09/27 00:21:09;;;;;;;2.00;0.60;;;;;;;9.43;100.00;99422.84;1041062;28;20438;-79
2022/09/27 00:21:42;;;;;;;0.85;0.60;;;;;;;9.47;100.00;99428.47;1038676;28;20301;-78
2022/09/27 00:22:13;;;;;;;3.70;0.88;;;;;;;9.43;100.00;99428.16;1037885;28;20300;-78
2022/09/27 00:22:47;;;;;;;1.02;0.65;;;;;;;9.36;100.00;99422.19;1036051;28;20277;-78
2022/09/27 00:23:18;;;;;;;5.53;0.80;;;;;;;9.37;100.00;99423.81;1037045;28;20340;-78
2022/09/27 00:23:50;;;;;;;7.25;1.58;;;;;;;9.33;100.00;99428.00;1039443;28;20820;-78
2022/09/27 00:24:22;;;;;;;3.47;1.05;;;;;;;9.29;100.00;99426.84;1043810;28;20311;-78
2022/09/27 00:24:53;;;;;;;4.97;0.80;;;;;;;9.33;100.00;99428.00;1041051;28;20284;-78
2022/09/27 00:25:25;;;;;;;8.45;1.05;;;;;;;9.28;100.00;99423.41;1042906;28;20353;-78
2022/09/27 00:25:57;;;;;;;11.50;1.95;;;;;;;9.32;100.00;99428.25;1042505;28;20299;-78
2022/09/27 00:26:29;;;;;;;4.78;0.75;;;;;;;9.29;100.00;99424.19;1045056;28;20303;-78
2022/09/27 00:27:01;;;;;;;5.38;1.75;;;;;;;9.33;100.00;99424.53;1048516;28;20850;-78
2022/09/27 00:27:32;;;;;;;4.22;0.80;;;;;;;9.30;100.00;99428.47;1048536;28;20307;-78
2022/09/27 00:28:04;;;;;;;5.63;0.77;;;;;;;9.29;100.00;99430.31;1042408;28;20372;-78
2022/09/27 00:28:35;;;;;;;4.47;0.80;;;;;;;9.32;100.00;99430.91;1035880;28;20436;-78
2022/09/27 00:29:09;;;;;;;7.35;1.00;;;;;;;9.31;100.00;99435.38;1034634;28;20300;-79
2022/09/27 00:29:41;;;;;;;6.22;0.77;;;;;;;9.30;100.00;99423.16;1037691;28;20324;-78
2022/09/27 00:30:12;;;;;;;4.82;2.00;;;;;;;9.40;100.00;99433.97;1043358;28;20334;-78
2022/09/27 00:30:44;;;;;;;3.42;1.48;;;;;;;9.32;100.00;99437.03;1043405;28;20330;-78
2022/09/27 00:31:21;;;;;;;5.03;0.90;;;;;;;9.25;100.00;99437.16;1038202;28;20778;-78
2022/09/27 00:31:53;;;;;;;2.78;1.42;;;;;;;9.22;100.00;99431.53;1035992;28;20790;-78
2022/09/27 00:32:24;;;;;;;5.65;0.82;;;;;;;9.22;100.00;99432.34;1036189;28;20325;-78
2022/09/27 00:32:56;;;;;;;4.45;1.13;;;;;;;9.30;100.00;99436.44;1036471;28;20324;-78
2022/09/27 00:33:27;;;;;;;5.65;1.30;;;;;;;9.26;100.00;99433.47;1038748;28;20323;-78
2022/09/27 00:34:01;;;;;;;6.60;1.08;;;;;;;9.23;100.00;99438.47;1040289;28;20346;-78
2022/09/27 00:34:32;;;;;;;3.92;0.80;;;;;;;9.30;100.00;99439.09;1036706;28;20305;-79
2022/09/27 00:35:04;;;;;;;3.33;1.80;;;;;;;9.28;100.00;99435.88;1036070;28;20305;-78
2022/09/27 00:35:36;;;;;;;1.35;0.70;;;;;;;9.33;100.00;99432.53;1040825;28;20315;-78
2022/09/27 00:36:08;;;;;;;2.28;0.75;;;;;;;9.29;100.00;99437.47;1037098;28;20399;-78
2022/09/27 00:36:40;;;;;;;4.03;0.80;;;;;;;9.26;100.00;99435.31;1040235;28;20389;-78
2022/09/27 00:37:11;;;;;;;3.42;0.57;;;;;;;9.23;100.00;99438.47;1041980;28;20277;-78
2022/09/27 00:37:47;;;;;;;6.47;0.80;;;;;;;9.24;100.00;99437.41;1043453;28;20322;-79
2022/09/27 00:38:18;;;;;;;6.28;0.82;;;;;;;9.23;100.00;99431.28;1040576;28;20774;-78
2022/09/27 00:38:51;;;;;;;2.10;1.17;;;;;;;9.28;100.00;99431.38;1037601;28;20675;-77
2022/09/27 00:39:22;;;;;;;6.70;0.90;;;;;;;9.30;100.00;99433.78;1040215;28;20689;-77
2022/09/27 00:39:54;;;;;;;3.25;0.60;;;;;;;9.26;100.00;99433.47;1035524;28;20297;-77
2022/09/27 00:40:25;;;;;;;2.10;0.82;;;;;;;9.29;100.00;99434.81;1032638;28;20809;-77
2022/09/27 00:40:57;;;;;;;2.53;0.80;;;;;;;9.23;100.00;99438.47;1035228;28;20303;-77
2022/09/27 00:41:34;;;;;;;5.10;0.63;;;;;;;9.26;100.00;99437.97;1036096;28;20300;-77
2022/09/27 00:42:10;;;;;;;3.33;0.80;;;;;;;9.21;100.00;99432.59;1036767;28;20296;-77
2022/09/27 00:42:42;;;;;;;3.90;0.80;;;;;;;9.23;100.00;99438.47;1041551;28;20833;-77
2022/09/27 00:43:19;;;;;;;3.47;0.70;;;;;;;9.18;100.00;99441.84;1039754;28;20315;-77
2022/09/27 00:44:00;;;;;;;1.52;0.57;;;;;;;9.17;100.00;99439.44;1039927;28;20331;-77
2022/09/27 00:44:37;;;;;;;2.17;1.15;;;;;;;9.21;100.00;99440.56;1035700;28;20328;-77
2022/09/27 00:45:15;;;;;;;5.30;0.70;;;;;;;9.20;100.00;99442.41;1038896;28;20034;-77
2022/09/27 00:45:51;;;;;;;2.92;0.70;;;;;;;9.22;100.00;99431.53;1043259;28;20295;-77
2022/09/27 00:46:27;;;;;;;4.78;0.77;;;;;;;9.19;100.00;99434.69;1042723;28;20311;-77
2022/09/27 00:47:11;;;;;;;1.58;0.43;;;;;;;9.20;100.00;99444.25;1039889;28;20741;-77
2022/09/27 00:47:49;;;;;;;5.78;1.52;;;;;;;9.19;100.00;99440.78;1035659;28;20390;-77
2022/09/27 00:48:23;;;;;;;7.90;1.10;;;;;;;9.15;100.00;99452.94;1035522;28;20830;-77
2022/09/27 00:49:24;;;;;;;2.83;0.70;;;;;;;9.17;100.00;99450.06;1029744;28;20302;-77
2022/09/27 00:50:00;;;;;;;3.90;0.82;;;;;;;9.12;100.00;99442.00;1031394;28;20388;-77
2022/09/27 00:50:36;;;;;;;7.32;0.80;;;;;;;9.12;100.00;99442.00;1032646;28;20784;-77
2022/09/27 00:51:08;;;;;;;4.70;1.15;;;;;;;9.14;100.00;99450.53;1035790;28;20701;-77
2022/09/27 00:51:41;;;;;;;6.82;2.00;;;;;;;9.15;100.00;99446.84;1036595;28;20304;-78
2022/09/27 00:52:36;;;;;;;3.72;0.40;;;;;;;9.11;100.00;99445.72;1035024;28;20304;-77
2022/09/27 00:53:22;;;;;;;2.78;0.70;;;;;;;9.03;100.00;99448.75;1043764;28;20716;-77
2022/09/27 00:53:55;;;;;;;1.65;0.60;;;;;;;9.08;100.00;99456.81;1035831;28;20308;-77
2022/09/27 00:54:28;;;;;;;1.15;0.88;;;;;;;9.04;100.00;99445.03;1043811;28;20299;-77
2022/09/27 00:55:05;;;;;;;0.77;0.52;;;;;;;9.06;100.00;99448.28;1036487;28;20829;-77
2022/09/27 00:56:02;;;;;;;1.67;0.65;;;;;;;9.06;100.00;99457.06;1032011;28;20731;-77
2022/09/27 00:56:34;;;;;;;2.13;0.50;;;;;;;9.05;100.00;99447.47;1026385;28;20717;-77
2022/09/27 00:57:07;;;;;;;4.25;0.47;;;;;;;9.07;100.00;99452.56;1031748;28;20296;-77
2022/09/27 00:57:40;;;;;;;3.20;0.75;;;;;;;9.02;100.00;99449.78;1039522;28;20654;-78
2022/09/27 00:58:13;;;;;;;2.35;0.52;;;;;;;9.03;100.00;99448.75;1036054;28;20328;-77
2022/09/27 00:58:50;;;;;;;1.52;0.40;;;;;;;9.07;100.00;99455.22;1036922;28;20300;-77
2022/09/27 00:59:46;;;;;;;7.00;0.90;;;;;;;9.08;100.00;99454.97;1035613;28;20688;-77
2022/09/27 01:00:20;;;;;;;1.95;0.65;;;;;;;9.11;100.00;99454.47;1038222;28;20284;-78
2022/09/27 01:00:55;;;;;;;2.60;0.93;;;;;;;9.12;100.00;99457.94;1044114;28;20634;-77
2022/09/27 01:01:29;;;;;;;2.30;0.70;;;;;;;9.12;100.00;99457.94;1043381;28;20294;-77
2022/09/27 01:02:03;;;;;;;3.60;0.70;;;;;;;9.10;100.00;99460.84;1036932;28;20816;-78
2022/09/27 01:02:37;;;;;;;2.17;0.70;;;;;;;9.13;100.00;99454.25;1035564;28;20413;-77
2022/09/27 01:03:13;;;;;;;3.60;0.60;;;;;;;9.13;100.00;99452.38;1037174;28;20319;-78
2022/09/27 01:03:55;;;;;;;4.85;1.48;;;;;;;9.18;100.00;99460.44;1039478;28;20670;-77
2022/09/27 01:04:28;;;;;;;1.95;0.60;;;;;;;9.14;100.00;99464.63;1039698;28;20357;-77
2022/09/27 01:05:00;;;;;;;5.40;0.52;;;;;;;9.21;100.00;99457.31;1040028;28;20386;-77
2022/09/27 01:05:31;;;;;;;2.90;0.60;;;;;;;9.14;100.00;99458.50;1035082;28;20336;-77
2022/09/27 01:06:05;;;;;;;2.80;0.40;;;;;;;9.14;100.00;99453.19;1029277;28;20309;-78
2022/09/27 01:06:37;;;;;;;2.30;0.90;;;;;;;9.10;100.00;99468.81;1032008;28;20293;-77
2022/09/27 01:07:08;;;;;;;1.80;1.00;;;;;;;9.11;100.00;99457.13;1031876;28;20305;-77
2022/09/27 01:07:40;;;;;;;3.65;0.43;;;;;;;9.10;100.00;99465.34;1039440;28;20296;-77
2022/09/27 01:08:12;;;;;;;7.18;0.60;;;;;;;9.12;100.00;99460.59;1035047;28;20909;-77
2022/09/27 01:08:44;;;;;;;1.05;0.35;;;;;;;9.07;100.00;99461.31;1032089;28;20741;-77
2022/09/27 01:09:16;;;;;;;4.40;0.40;;;;;;;9.07;100.00;99466.63;1033219;28;20313;-77
2022/09/27 01:09:48;;;;;;;1.00;1.00;;;;;;;9.14;100.00;99467.28;1040606;28;20296;-78
2022/09/27 01:10:21;;;;;;;4.85;0.70;;;;;;;9.10;100.00;99460.03;1043470;28;21141;-78
2022/09/27 01:11:35;;;;;;;1.42;0.80;;;;;;;9.10;100.00;99465.34;1044129;28;20635;-77
2022/09/27 01:12:20;;;;;;;8.50;1.27;;;;;;;9.06;100.00;99464.22;1046001;28;21978;-78
2022/09/27 01:13:11;;;;;;;1.38;0.65;;;;;;;9.05;100.00;99468.72;1048044;28;20380;-77
2022/09/27 01:13:53;;;;;;;3.60;0.73;;;;;;;9.01;100.00;99467.56;1043235;28;20333;-77
2022/09/27 01:14:47;;;;;;;3.13;0.30;;;;;;;9.03;100.00;99464.69;1039531;28;20304;-77
2022/09/27 01:15:27;;;;;;;5.03;0.38;;;;;;;9.07;100.00;99468.50;1039917;28;20295;-78
2022/09/27 01:16:04;;;;;;;1.67;0.40;;;;;;;9.16;100.00;99475.00;1040271;28;20307;-77
2022/09/27 01:16:55;;;;;;;6.32;1.67;;;;;;;9.06;100.00;99469.53;1047227;28;20123;-78
2022/09/27 01:17:58;;;;;;;1.20;0.30;;;;;;;9.04;100.00;99466.28;1043711;28;20350;-78
2022/09/27 01:18:37;;;;;;;2.45;0.88;;;;;;;9.06;100.00;99466.88;1043339;28;20709;-77
2022/09/27 01:19:26;;;;;;;0.85;0.50;;;;;;;9.07;100.00;99468.50;1040359;28;20932;-78
2022/09/27 01:20:18;;;;;;;3.22;0.73;;;;;;;9.02;100.00;99469.19;1033003;28;20301;-77
2022/09/27 01:21:15;;;;;;;1.55;0.85;;;;;;;9.07;100.00;99471.16;1034143;28;20866;-77
2022/09/27 01:22:08;;;;;;;1.95;0.50;;;;;;;9.07;100.00;99471.94;1040005;28;20305;-77
2022/09/27 01:23:13;;;;;;;1.85;0.50;;;;;;;9.07;100.00;99468.50;1039619;28;20292;-78
2022/09/27 01:23:48;;;;;;;1.70;0.60;;;;;;;9.01;100.00;99470.22;1038935;28;20292;-77
2022/09/27 01:25:09;;;;;;;0.35;0.25;;;;;;;9.01;100.00;99466.78;1033659;28;20309;-77
2022/09/27 01:26:08;;;;;;;4.50;0.47;;;;;;;9.07;100.00;99471.16;1041476;28;20299;-77
2022/09/27 01:26:58;;;;;;;4.03;0.40;;;;;;;9.07;100.00;99471.16;1044712;28;20299;-77
2022/09/27 01:27:57;;;;;;;2.15;0.30;;;;;;;9.01;100.00;99472.88;1048642;28;20298;-77
2022/09/27 01:28:55;;;;;;;4.13;0.50;;;;;;;9.01;100.00;99464.91;1039091;28;20045;-77
2022/09/27 01:29:49;;;;;;;1.00;0.38;;;;;;;8.93;100.00;99466.13;1038714;28;20311;-77
2022/09/27 01:30:26;;;;;;;0.82;0.30;;;;;;;8.98;100.00;99462.75;1042805;28;20292;-77
2022/09/27 01:31:03;;;;;;;1.23;0.60;;;;;;;8.87;100.00;99467.09;1044206;28;20299;-77
2022/09/27 01:31:47;;;;;;;3.47;0.32;;;;;;;8.86;100.00;99459.34;1040130;28;20295;-77
2022/09/27 01:32:23;;;;;;;2.63;0.60;;;;;;;8.82;100.00;99461.69;1038425;28;20327;-77
2022/09/27 01:33:13;;;;;;;2.15;0.35;;;;;;;8.90;100.00;99465.78;1032719;28;21073;-76
2022/09/27 01:34:01;;;;;;;3.83;0.40;;;;;;;8.88;100.00;99465.22;1031678;28;20693;-77
2022/09/27 01:34:53;;;;;;;1.95;0.85;;;;;;;8.79;100.00;99459.50;1036113;28;20675;-77
2022/09/27 01:35:40;;;;;;;5.72;0.20;;;;;;;8.69;100.00;99461.97;1033744;28;20357;-77
2022/09/27 01:36:19;;;;;;;2.03;0.65;;;;;;;8.66;100.00;99459.78;1033022;28;20302;-77
2022/09/27 01:37:09;;;;;;;5.18;0.70;;;;;;;8.67;100.00;99466.69;1034182;28;20663;-77
2022/09/27 01:38:05;;;;;;;6.05;0.70;;;;;;;8.67;100.00;99462.19;1031924;28;20308;-77
2022/09/27 01:38:51;;;;;;;1.35;0.60;;;;;;;8.76;100.00;99465.28;1033459;28;20301;-76
2022/09/27 01:39:42;;;;;;;4.40;0.65;;;;;;;8.71;100.00;99459.06;1031654;28;20313;-76
2022/09/27 01:40:55;;;;;;;2.25;0.50;;;;;;;8.68;100.00;99463.00;1038051;28;20292;-77
2022/09/27 01:42:09;;;;;;;8.20;0.85;;;;;;;8.71;100.00;99457.22;1039838;28;20952;-77
2022/09/27 01:42:59;;;;;;;2.90;0.50;;;;;;;8.64;100.00;99462.69;1035376;28;20682;-77
2022/09/27 01:43:46;;;;;;;3.25;0.52;;;;;;;8.65;100.00;99458.16;1039637;28;20337;-77
2022/09/27 01:44:27;;;;;;;1.45;0.57;;;;;;;8.59;100.00;99456.47;1031676;28;20320;-77
2022/09/27 01:45:13;;;;;;;1.27;0.45;;;;;;;8.60;100.00;99460.75;1031656;28;20305;-77
2022/09/27 01:46:10;;;;;;;4.10;0.63;;;;;;;8.57;100.00;99456.72;1035618;28;20305;-77
2022/09/27 01:47:19;;;;;;;4.45;1.20;;;;;;;8.51;100.00;99452.34;1031197;28;20293;-77
2022/09/27 01:47:58;;;;;;;3.20;0.45;;;;;;;8.48;100.00;99458.09;1036512;28;20841;-77
2022/09/27 01:48:53;;;;;;;0.90;0.40;;;;;;;8.52;100.00;99463.78;1039305;28;20315;-77
2022/09/27 01:50:03;;;;;;;1.88;0.50;;;;;;;8.44;100.00;99458.81;1043270;28;20426;-77
2022/09/27 01:50:46;;;;;;;4.45;0.43;;;;;;;8.44;100.00;99456.16;1045969;28;20303;-77
2022/09/27 01:51:21;;;;;;;2.40;0.50;;;;;;;8.46;100.00;99459.38;1041665;28;20037;-77
2022/09/27 01:51:59;;;;;;;3.85;0.40;;;;;;;8.40;100.00;99465.66;1036618;28;20527;-77
2022/09/27 01:52:35;;;;;;;5.60;0.50;;;;;;;8.41;100.00;99456.66;1047001;28;20299;-77
2022/09/27 01:53:48;;;;;;;3.72;0.57;;;;;;;8.40;100.00;99468.31;1039871;28;20303;-77
2022/09/27 01:54:44;;;;;;;5.53;0.43;;;;;;;8.36;100.00;99460.00;1042392;28;20737;-76
2022/09/27 01:55:33;;;;;;;2.92;0.73;;;;;;;8.33;100.00;99468.41;1042581;28;20303;-76
2022/09/27 01:56:47;;;;;;;0.32;0.32;;;;;;;8.29;100.00;99465.44;1040621;28;21053;-77
2022/09/27 01:57:29;;;;;;;1.30;0.60;;;;;;;8.25;100.00;99472.25;1036197;28;20309;-76
2022/09/27 01:58:07;;;;;;;3.53;0.75;;;;;;;8.46;100.00;99465.50;1038668;28;20730;-77
2022/09/27 01:58:43;;;;;;;3.70;0.40;;;;;;;8.50;100.00;99471.16;1027658;28;20306;-77
2022/09/27 01:59:19;;;;;;;4.82;0.52;;;;;;;8.43;100.00;99470.47;1033703;28;20798;-76
2022/09/27 02:00:04;;;;;;;2.28;0.60;;;;;;;8.45;100.00;99468.41;1042131;28;20327;-77
2022/09/27 02:00:56;;;;;;;4.53;0.60;;;;;;;8.40;100.00;99468.31;1043001;28;20335;-77
2022/09/27 02:01:30;;;;;;;1.55;0.57;;;;;;;8.43;100.00;99462.53;1037619;28;20304;-77
2022/09/27 02:02:07;;;;;;;0.88;0.30;;;;;;;8.36;100.00;99455.50;1032445;28;20341;-77
2022/09/27 02:03:21;;;;;;;5.03;0.52;;;;;;;8.45;100.00;99463.09;1029750;28;20298;-77
2022/09/27 02:04:24;;;;;;;2.25;0.40;;;;;;;8.39;100.00;99464.03;1039946;28;20300;-77
2022/09/27 02:05:12;;;;;;;1.75;0.80;;;;;;;8.57;100.00;99462.03;1039782;28;20041;-77
2022/09/27 02:05:51;;;;;;;1.48;0.30;;;;;;;8.54;100.00;99462.50;1034185;28;20370;-77
2022/09/27 02:06:48;;;;;;;1.10;0.20;;;;;;;8.50;100.00;99460.56;1034049;28;20355;-77
2022/09/27 02:07:28;;;;;;;4.05;0.35;;;;;;;8.51;100.00;99462.16;1032768;28;20368;-77
2022/09/27 02:08:05;;;;;;;2.58;0.47;;;;;;;8.55;100.00;99458.00;1024768;28;20306;-77
2022/09/27 02:08:41;;;;;;;2.55;0.40;;;;;;;8.59;100.00;99461.78;1032032;28;20297;-77
2022/09/27 02:09:56;;;;;;;0.88;0.50;;;;;;;8.54;100.00;99461.69;1032007;28;20305;-77
2022/09/27 02:10:38;;;;;;;2.30;0.30;;;;;;;8.54;100.00;99459.03;1042829;28;20291;-77
2022/09/27 02:11:17;;;;;;;5.28;0.32;;;;;;;8.52;100.00;99455.81;1040303;28;20183;-77
2022/09/27 02:12:02;;;;;;;2.00;0.20;;;;;;;8.56;100.00;99457.75;1035340;28;20857;-76
2022/09/27 02:12:40;;;;;;;0.40;0.40;;;;;;;8.57;100.00;99455.91;1029809;28;20529;-77
2022/09/27 02:13:30;;;;;;;2.50;0.28;;;;;;;8.52;100.00;99455.81;1034919;28;20308;-77
2022/09/27 02:14:45;;;;;;;2.75;0.20;;;;;;;8.54;100.00;99461.69;1037632;28;20050;-77
2022/09/27 02:15:18;;;;;;;1.88;0.20;;;;;;;8.56;100.00;99459.59;1035774;28;20300;-77
2022/09/27 02:16:17;;;;;;;1.48;0.50;;;;;;;8.49;100.00;99458.91;1037179;28;20301;-77
2022/09/27 02:16:53;;;;;;;0.95;0.30;;;;;;;8.46;100.00;99456.75;1033637;28;20431;-77
2022/09/27 02:17:42;;;;;;;1.92;1.25;;;;;;;8.41;100.00;99457.44;1037270;28;20687;-77
2022/09/27 02:18:24;;;;;;;3.75;0.30;;;;;;;8.42;100.00;99458.25;1035096;28;20340;-77
2022/09/27 02:19:23;;;;;;;2.45;1.05;;;;;;;8.44;100.00;99458.81;1028205;28;20345;-77
2022/09/27 02:20:02;;;;;;;3.80;0.38;;;;;;;8.40;100.00;99445.22;1036455;28;20308;-77
2022/09/27 02:20:49;;;;;;;0.20;0.20;;;;;;;8.43;100.00;99462.53;1039857;28;20300;-77
2022/09/27 02:21:24;;;;;;;0.93;0.17;;;;;;;8.42;100.00;99445.00;1039561;28;20303;-77
2022/09/27 02:22:05;;;;;;;0.55;0.40;;;;;;;8.42;100.00;99452.94;1036253;28;20288;-77
2022/09/27 02:22:55;;;;;;;0.63;0.30;;;;;;;8.46;100.00;99454.09;1033457;28;20309;-77
2022/09/27 02:23:38;;;;;;;8.05;0.40;;;;;;;8.40;100.00;99455.03;1035644;28;20044;-77
2022/09/27 02:24:19;;;;;;;2.10;0.43;;;;;;;8.44;100.00;99456.97;1036419;28;20311;-77
2022/09/27 02:24:57;;;;;;;0.73;0.10;;;;;;;8.42;100.00;99452.94;1035187;28;20312;-77
2022/09/27 02:25:41;;;;;;;1.67;0.10;;;;;;;8.37;100.00;99445.69;1034819;28;20311;-77
2022/09/27 02:26:23;;;;;;;1.25;0.30;;;;;;;8.36;100.00;99447.56;1035548;28;20308;-77
2022/09/27 02:27:06;;;;;;;0.38;0.10;;;;;;;8.35;100.00;99451.25;1025424;28;20302;-76
2022/09/27 02:27:46;;;;;;;2.20;0.22;;;;;;;8.35;100.00;99451.25;1031593;28;20289;-77
2022/09/27 02:28:38;;;;;;;2.92;0.30;;;;;;;8.39;100.00;99456.06;1035621;28;20308;-77
2022/09/27 02:29:18;;;;;;;1.92;0.35;;;;;;;8.35;100.00;99455.75;1027751;28;20049;-77
2022/09/27 02:30:01;;;;;;;0.30;0.10;;;;;;;8.45;100.00;99452.47;1028945;28;20298;-76
2022/09/27 02:30:34;;;;;;;1.75;0.45;;;;;;;8.46;100.00;99459.38;1031667;28;20428;-76
2022/09/27 02:31:19;;;;;;;1.55;0.10;;;;;;;8.40;100.00;99455.03;1039504;28;20456;-77
2022/09/27 02:31:51;;;;;;;0.30;0.20;;;;;;;8.41;100.00;99456.66;1042761;28;20394;-77
2022/09/27 02:32:23;;;;;;;0.30;0.10;;;;;;;8.38;100.00;99455.28;1042202;28;20296;-77
2022/09/27 02:32:55;;;;;;;1.13;0.20;;;;;;;8.35;100.00;99453.91;1035870;28;20837;-77
2022/09/27 02:33:35;;;;;;;4.78;0.73;;;;;;;8.38;100.00;99449.16;1031604;28;20400;-77
2022/09/27 02:34:22;;;;;;;0.60;0.20;;;;;;;8.30;100.00;99453.78;1032184;28;20388;-77
2022/09/27 02:34:56;;;;;;;0.98;0.20;;;;;;;8.28;100.00;99450.56;1033172;28;20302;-77
2022/09/27 02:35:31;;;;;;;2.08;0.10;;;;;;;8.32;100.00;99454.34;1035420;28;20304;-77
2022/09/27 02:36:03;;;;;;;1.85;0.20;;;;;;;8.31;100.00;99450.06;1026763;28;20302;-77
2022/09/27 02:36:35;;;;;;;2.08;0.30;;;;;;;8.30;100.00;99445.00;1031088;28;20553;-77
2022/09/27 02:37:06;;;;;;;3.63;0.10;;;;;;;8.25;100.00;99447.56;1031456;28;20308;-77
2022/09/27 02:37:38;;;;;;;4.43;0.17;;;;;;;8.21;100.00;99451.69;1031594;28;20758;-77
2022/09/27 02:38:12;;;;;;;0.80;0.38;;;;;;;8.28;100.00;99447.91;1031706;28;20316;-77
2022/09/27 02:38:44;;;;;;;0.98;0.20;;;;;;;8.20;100.00;99453.56;1035224;28;20305;-77
2022/09/27 02:39:19;;;;;;;2.95;0.60;;;;;;;8.21;100.00;99452.50;1035383;28;20338;-77
2022/09/27 02:39:53;;;;;;;2.70;0.47;;;;;;;8.20;100.00;99455.41;1036252;28;20303;-77
2022/09/27 02:40:29;;;;;;;3.30;0.85;;;;;;;8.19;100.00;99451.94;1036313;28;20352;-77
2022/09/27 02:41:01;;;;;;;2.38;0.50;;;;;;;8.15;100.00;99457.94;1033163;28;20293;-77
2022/09/27 02:41:33;;;;;;;3.95;1.33;;;;;;;8.13;100.00;99450.22;1036366;28;20395;-77
2022/09/27 02:42:05;;;;;;;1.13;0.25;;;;;;;8.09;100.00;99450.94;1032238;28;20308;-77
2022/09/27 02:42:38;;;;;;;3.30;0.13;;;;;;;8.08;100.00;99450.13;1031498;28;20328;-77
2022/09/27 02:43:11;;;;;;;1.55;0.10;;;;;;;8.05;100.00;99458.56;1032060;28;20353;-77
2022/09/27 02:43:44;;;;;;;3.00;0.20;;;;;;;8.04;100.00;99456.94;1035754;28;20297;-77
2022/09/27 02:44:16;;;;;;;0.52;0.10;;;;;;;8.08;100.00;99460.75;1035125;28;20296;-77
2022/09/27 02:44:48;;;;;;;1.15;0.10;;;;;;;8.07;100.00;99451.16;1036345;28;20304;-77
2022/09/27 02:45:20;;;;;;;1.45;0.43;;;;;;;8.05;100.00;99458.56;1032581;28;20366;-77
2022/09/27 02:46:15;;;;;;;3.83;0.40;;;;;;;8.01;100.00;99457.41;1031664;28;20803;-77
2022/09/27 02:47:07;;;;;;;1.75;0.20;;;;;;;7.99;100.00;99460.28;1030949;28;20714;-77
2022/09/27 02:48:10;;;;;;;1.05;0.17;;;;;;;8.15;100.00;99458.75;1030267;28;20877;-77
2022/09/27 02:48:55;;;;;;;;;;;;;;;7.96;100.00;99457.31;1029304;28;20307;-77
2022/09/27 02:49:54;;;;;;;0.28;0.20;;;;;;;7.92;100.00;99456.13;1031372;28;20466;-77
2022/09/27 02:50:56;;;;;;;2.28;0.35;;;;;;;7.96;100.00;99454.66;1035461;28;20703;-77
2022/09/27 02:51:46;;;;;;;3.10;0.50;;;;;;;8.03;100.00;99455.34;1030092;28;20328;-77
2022/09/27 02:52:48;;;;;;;0.30;0.00;;;;;;;7.95;100.00;99458.34;1023893;28;20130;-77
2022/09/27 02:53:37;;;;;;;0.63;0.40;;;;;;;7.93;100.00;99460.41;1032159;28;20720;-77
2022/09/27 02:54:40;;;;;;;3.50;0.43;;;;;;;7.88;100.00;99461.09;1038932;28;20394;-77
2022/09/27 02:56:02;;;;;;;1.17;0.20;;;;;;;7.84;100.00;99459.16;1043855;28;20272;-77
2022/09/27 02:57:29;;;;;;;1.65;0.10;;;;;;;7.80;100.00;99452.72;1047871;28;20581;-77
2022/09/27 02:58:49;;;;;;;0.35;0.10;;;;;;;7.83;100.00;99454.88;1047896;28;20311;-77
2022/09/27 02:59:50;;;;;;;1.10;0.60;;;;;;;7.77;100.00;99450.53;1043028;28;20303;-77
2022/09/27 03:00:40;;;;;;;1.23;0.28;;;;;;;7.87;100.00;99456.03;1039073;28;20304;-77
2022/09/27 03:01:51;;;;;;;2.08;0.43;;;;;;;7.67;100.00;99446.63;1041202;28;20320;-77
2022/09/27 03:02:52;;;;;;;4.78;0.30;;;;;;;7.65;100.00;99448.66;1035277;28;20308;-77
2022/09/27 03:03:42;;;;;;;19.67;1.38;;;;;;;7.68;100.00;99442.94;1035446;28;20030;-76
2022/09/27 03:04:22;;;;;;;1.55;0.30;;;;;;;7.72;100.00;99444.06;1035461;28;20305;-76
2022/09/27 03:04:56;;;;;;;0.95;0.30;;;;;;;7.81;100.00;99449.81;1033853;28;20316;-76
2022/09/27 03:05:37;;;;;;;1.70;0.60;;;;;;;7.75;100.00;99453.41;1032175;28;20301;-76
2022/09/27 03:06:10;;;;;;;0.28;0.10;;;;;;;7.66;100.00;99455.56;1034199;28;20639;-76
2022/09/27 03:06:44;;;;;;;2.92;0.35;;;;;;;7.75;100.00;99448.09;1033403;28;20079;-76
2022/09/27 03:07:17;;;;;;;0.95;0.50;;;;;;;7.70;100.00;99453.31;1036390;28;21958;-77
2022/09/27 03:07:49;;;;;;;3.08;0.60;;;;;;;7.70;100.00;99456.75;1036744;28;20428;-76
2022/09/27 03:08:20;;;;;;;3.05;0.40;;;;;;;7.66;100.00;99454.78;1042483;28;20644;-76
2022/09/27 03:08:52;;;;;;;3.72;0.50;;;;;;;7.64;100.00;99460.31;1036802;28;20301;-76
2022/09/27 03:09:28;;;;;;;1.23;0.68;;;;;;;7.60;100.00;99453.84;1039609;28;20360;-76
2022/09/27 03:09:59;;;;;;;0.47;0.30;;;;;;;7.59;100.00;99449.59;1029124;28;20310;-76
2022/09/27 03:10:32;;;;;;;2.38;0.73;;;;;;;7.56;100.00;99449.25;1027860;28;20681;-77
2022/09/27 03:11:03;;;;;;;2.53;0.52;;;;;;;7.64;100.00;99452.34;1030036;28;20692;-76
2022/09/27 03:11:35;;;;;;;1.48;0.82;;;;;;;7.72;100.00;99443.28;1027396;28;20305;-76
2022/09/27 03:12:07;;;;;;;2.83;0.30;;;;;;;7.65;100.00;99448.66;1027214;28;20306;-76
2022/09/27 03:12:39;;;;;;;0.88;0.50;;;;;;;7.68;100.00;99447.44;1028895;28;20676;-76